createdAt,value
2022-08-02T00:00:12.294Z,3.50
2022-08-02T00:02:38.789Z,3.85
2022-08-02T00:05:05.834Z,3.00
2022-08-02T00:07:35.298Z,4.25
2022-08-02T00:10:06.777Z,2.90
2022-08-02T00:12:33.498Z,3.42
2022-08-02T00:15:00.212Z,3.42
2022-08-02T00:17:26.778Z,3.42
2022-08-02T00:19:53.281Z,4.03
2022-08-02T00:22:19.808Z,3.53
2022-08-02T00:24:46.480Z,3.80
2022-08-02T00:27:13.162Z,4.75
2022-08-02T00:29:42.699Z,4.10
2022-08-02T00:32:19.393Z,4.10
2022-08-02T00:34:46.006Z,4.20
2022-08-02T00:37:12.544Z,3.70
2022-08-02T00:39:39.051Z,7.28
2022-08-02T00:42:05.538Z,3.60
2022-08-02T00:44:32.086Z,4.50
2022-08-02T00:46:58.581Z,3.70
2022-08-02T00:49:25.215Z,4.95
2022-08-02T00:51:51.678Z,4.15
2022-08-02T00:54:19.547Z,3.88
2022-08-02T00:56:49.586Z,4.32
2022-08-02T00:59:16.577Z,4.20
2022-08-02T01:01:55.642Z,4.05
2022-08-02T01:04:29.845Z,3.88
2022-08-02T01:06:59.473Z,3.83
2022-08-02T01:09:26.112Z,5.40
2022-08-02T01:11:52.978Z,5.03
2022-08-02T01:14:20.024Z,5.15
2022-08-02T01:16:50.813Z,6.32
2022-08-02T01:19:34.681Z,3.13
2022-08-02T01:22:16.810Z,4.13
2022-08-02T01:25:07.781Z,3.83
2022-08-02T01:27:46.654Z,3.50
2022-08-02T01:30:14.545Z,4.22
2022-08-02T01:32:44.816Z,4.28
2022-08-02T01:35:22.467Z,6.60
2022-08-02T01:37:57.266Z,5.85
2022-08-02T01:40:29.318Z,4.38
2022-08-02T01:42:58.539Z,5.03
2022-08-02T01:45:26.781Z,3.95
2022-08-02T01:47:54.573Z,4.13
2022-08-02T01:50:26.363Z,4.22
2022-08-02T01:52:56.758Z,4.10
2022-08-02T01:55:33.688Z,4.25
2022-08-02T01:58:16.708Z,5.70
2022-08-02T02:00:44.697Z,3.67
2022-08-02T02:03:14.493Z,3.88
2022-08-02T02:05:43.918Z,4.57
2022-08-02T02:08:11.823Z,4.28
2022-08-02T02:10:40.583Z,4.10
2022-08-02T02:13:13.777Z,4.50
2022-08-02T02:15:51.139Z,4.20
2022-08-02T02:18:24.113Z,4.60
2022-08-02T02:20:51.180Z,4.85
2022-08-02T02:23:17.738Z,4.55
2022-08-02T02:25:53.167Z,5.07
2022-08-02T02:28:30.007Z,4.57
2022-08-02T02:31:07.042Z,4.80
2022-08-02T02:33:37.484Z,4.85
2022-08-02T02:36:05.099Z,4.88
2022-08-02T02:38:33.577Z,4.65
2022-08-02T02:41:05.385Z,4.72
2022-08-02T02:43:34.346Z,4.82
2022-08-02T02:46:03.732Z,5.82
2022-08-02T02:48:31.908Z,4.40
2022-08-02T02:51:00.467Z,4.18
2022-08-02T02:53:28.614Z,4.70
2022-08-02T02:56:16.747Z,3.63
2022-08-02T02:58:44.059Z,4.20
2022-08-02T03:01:56.071Z,4.53
2022-08-02T03:04:18.375Z,4.35
2022-08-02T03:06:45.853Z,4.75
2022-08-02T03:09:12.530Z,4.63
2022-08-02T03:11:40.557Z,4.70
2022-08-02T03:14:10.983Z,4.50
2022-08-02T03:16:45.646Z,4.63
2022-08-02T03:19:12.405Z,4.53
2022-08-02T03:21:39.435Z,5.20
2022-08-02T03:24:07.115Z,5.22
2022-08-02T03:26:34.162Z,4.80
2022-08-02T03:29:00.901Z,5.05
2022-08-02T03:31:39.758Z,4.18
2022-08-02T03:34:06.310Z,4.65
2022-08-02T03:36:34.741Z,5.22
2022-08-02T03:39:01.777Z,5.30
2022-08-02T03:41:29.785Z,4.80
2022-08-02T03:43:57.004Z,4.55
2022-08-02T03:46:25.170Z,5.47
2022-08-02T03:48:53.087Z,5.00
2022-08-02T03:51:20.449Z,5.75
2022-08-02T03:53:48.888Z,4.93
2022-08-02T03:56:16.827Z,5.63
2022-08-02T03:58:48.832Z,7.72
2022-08-02T04:01:16.544Z,4.97
2022-08-02T04:03:43.276Z,6.05
2022-08-02T04:06:09.865Z,5.10
2022-08-02T04:08:38.645Z,5.00
2022-08-02T04:11:25.139Z,5.53
2022-08-02T04:13:52.569Z,4.88
2022-08-02T04:16:34.403Z,5.22
2022-08-02T04:19:03.293Z,5.15
2022-08-02T04:21:48.931Z,6.50
2022-08-02T04:24:25.169Z,5.07
2022-08-02T04:26:57.919Z,4.97
2022-08-02T04:29:35.193Z,4.97
2022-08-02T04:32:02.631Z,5.07
2022-08-02T04:34:30.343Z,4.65
2022-08-02T04:36:58.638Z,5.10
2022-08-02T04:39:25.222Z,5.53
2022-08-02T04:41:57.179Z,4.95
2022-08-02T04:44:24.506Z,4.20
2022-08-02T04:46:51.352Z,4.82
2022-08-02T04:49:17.962Z,6.00
2022-08-02T04:51:44.575Z,6.47
2022-08-02T04:54:11.691Z,7.00
2022-08-02T04:56:39.384Z,4.97
2022-08-02T04:59:06.787Z,5.75
2022-08-02T05:01:33.392Z,5.05
2022-08-02T05:03:59.902Z,5.13
2022-08-02T05:06:26.319Z,5.43
2022-08-02T05:08:53.771Z,5.25
2022-08-02T05:11:34.572Z,5.05
2022-08-02T05:14:04.509Z,5.43
2022-08-02T05:16:32.158Z,5.30
2022-08-02T05:19:00.277Z,6.35
2022-08-02T05:21:26.740Z,4.85
2022-08-02T05:23:53.272Z,4.68
2022-08-02T05:26:19.860Z,5.45
2022-08-02T05:28:46.323Z,5.40
2022-08-02T05:31:13.271Z,5.30
2022-08-02T05:33:40.395Z,5.75
2022-08-02T05:36:09.141Z,5.05
2022-08-02T05:38:37.313Z,4.55
2022-08-02T05:41:07.163Z,4.28
2022-08-02T05:43:34.020Z,4.47
2022-08-02T05:46:00.650Z,4.03
2022-08-02T05:48:31.473Z,4.30
2022-08-02T05:51:04.486Z,6.28
2022-08-02T05:53:41.174Z,4.90
2022-08-02T05:56:24.888Z,4.70
2022-08-02T05:59:13.580Z,4.10
2022-08-02T06:01:42.703Z,3.97
2022-08-02T06:04:12.786Z,3.80
2022-08-02T06:06:44.047Z,3.72
2022-08-02T06:09:16.874Z,3.80
2022-08-02T06:12:01.881Z,3.67
2022-08-02T06:14:33.055Z,3.58
2022-08-02T06:17:03.930Z,6.07
2022-08-02T06:19:32.089Z,3.60
2022-08-02T06:22:33.202Z,3.88
2022-08-02T06:25:04.421Z,3.90
2022-08-02T06:27:31.630Z,3.92
2022-08-02T06:29:58.263Z,5.47
2022-08-02T06:32:27.056Z,3.50
2022-08-02T06:34:53.506Z,3.80
2022-08-02T06:37:44.738Z,3.58
2022-08-02T06:40:31.342Z,7.15
2022-08-02T06:43:25.460Z,4.22
2022-08-02T06:45:51.927Z,2.90
2022-08-02T06:48:18.474Z,3.53
2022-08-02T06:50:45.031Z,3.45
2022-08-02T06:53:12.177Z,4.85
2022-08-02T06:55:43.584Z,5.10
2022-08-02T06:58:11.764Z,5.88
2022-08-02T07:00:38.589Z,3.20
2022-08-02T07:03:05.876Z,2.90
2022-08-02T07:05:32.354Z,3.13
2022-08-02T07:07:58.797Z,3.30
2022-08-02T07:10:25.306Z,3.03
2022-08-02T07:12:51.746Z,2.97
2022-08-02T07:15:18.249Z,4.22
2022-08-02T07:17:44.746Z,2.90
2022-08-02T07:20:13.448Z,2.63
2022-08-02T07:22:40.064Z,2.85
2022-08-02T07:25:08.153Z,3.28
2022-08-02T07:27:34.921Z,2.42
2022-08-02T07:30:02.375Z,3.53
2022-08-02T07:32:31.265Z,2.00
2022-08-02T07:34:58.953Z,2.53
2022-08-02T07:37:53.607Z,2.05
2022-08-02T07:40:19.848Z,2.30
2022-08-02T07:42:54.555Z,3.08
2022-08-02T07:45:24.518Z,2.67
2022-08-02T07:47:51.640Z,1.90
2022-08-02T07:50:20.082Z,2.47
2022-08-02T07:52:47.790Z,1.63
2022-08-02T07:55:17.953Z,1.70
2022-08-02T07:57:46.758Z,1.75
2022-08-02T08:00:15.961Z,1.60
2022-08-02T08:02:42.393Z,1.70
2022-08-02T08:05:09.479Z,1.02
2022-08-02T08:07:36.060Z,1.27
2022-08-02T08:10:03.961Z,1.25
2022-08-02T08:12:30.386Z,0.88
2022-08-02T08:14:56.795Z,2.00
2022-08-02T08:17:23.390Z,1.25
2022-08-02T08:19:52.062Z,1.52
2022-08-02T08:22:20.370Z,1.30
2022-08-02T08:24:49.042Z,1.25
2022-08-02T08:27:16.764Z,0.88
2022-08-02T08:29:44.325Z,1.25
2022-08-02T08:32:16.342Z,1.85
2022-08-02T08:34:47.670Z,0.98
2022-08-02T08:37:16.729Z,0.93
2022-08-02T08:39:57.578Z,1.42
2022-08-02T08:42:30.579Z,1.20
2022-08-02T08:44:57.824Z,3.78
2022-08-02T08:47:34.356Z,1.08
2022-08-02T08:50:04.563Z,1.30
2022-08-02T08:52:36.588Z,1.17
2022-08-02T08:55:05.650Z,1.35
2022-08-02T08:57:35.090Z,1.90
2022-08-02T09:00:01.742Z,1.50
2022-08-02T09:02:28.743Z,1.77
2022-08-02T09:04:55.651Z,1.98
2022-08-02T09:07:23.558Z,1.67
2022-08-02T09:09:50.004Z,1.50
2022-08-02T09:12:22.234Z,1.85
2022-08-02T09:14:50.169Z,1.73
2022-08-02T09:17:17.872Z,1.30
2022-08-02T09:19:45.839Z,1.40
2022-08-02T09:22:14.980Z,1.77
2022-08-02T09:24:45.195Z,1.52
2022-08-02T09:27:14.046Z,1.40
2022-08-02T09:30:06.011Z,1.40
2022-08-02T09:32:44.011Z,1.50
2022-08-02T09:35:10.895Z,1.20
2022-08-02T09:37:37.408Z,1.48
2022-08-02T09:40:06.771Z,1.30
2022-08-02T09:42:34.190Z,1.35
2022-08-02T09:45:02.093Z,1.48
2022-08-02T09:47:30.994Z,1.80
2022-08-02T09:49:58.626Z,3.95
2022-08-02T09:52:37.016Z,1.52
2022-08-02T09:55:11.283Z,1.70
2022-08-02T09:57:41.046Z,1.63
2022-08-02T10:00:14.911Z,1.52
2022-08-02T10:03:06.902Z,1.15
2022-08-02T10:05:55.534Z,1.95
2022-08-02T10:08:23.049Z,1.50
2022-08-02T10:11:00.316Z,1.40
2022-08-02T10:13:32.475Z,1.55
2022-08-02T10:15:59.487Z,1.35
2022-08-02T10:18:38.662Z,1.65
2022-08-02T10:21:12.180Z,1.30
2022-08-02T10:23:40.526Z,1.55
2022-08-02T10:26:07.945Z,1.80
2022-08-02T10:28:34.742Z,1.23
2022-08-02T10:31:05.522Z,1.10
2022-08-02T10:33:35.886Z,1.95
2022-08-02T10:36:07.549Z,1.35
2022-08-02T10:38:36.002Z,1.23
2022-08-02T10:41:02.756Z,1.88
2022-08-02T10:43:32.206Z,1.63
2022-08-02T10:46:25.214Z,1.90
2022-08-02T10:49:39.144Z,1.45
2022-08-02T10:52:07.275Z,2.38
2022-08-02T10:54:35.557Z,1.10
2022-08-02T10:57:04.247Z,1.60
2022-08-02T10:59:36.705Z,1.33
2022-08-02T11:02:05.699Z,1.98
2022-08-02T11:04:41.494Z,1.20
2022-08-02T11:07:17.340Z,1.55
2022-08-02T11:09:49.253Z,1.48
2022-08-02T11:12:19.872Z,1.98
2022-08-02T11:15:07.336Z,3.00
2022-08-02T11:17:54.246Z,1.27
2022-08-02T11:20:23.567Z,1.50
2022-08-02T11:22:52.501Z,1.63
2022-08-02T11:25:21.759Z,1.65
2022-08-02T11:27:48.904Z,1.50
2022-08-02T11:30:16.294Z,1.58
2022-08-02T11:32:42.859Z,1.80
2022-08-02T11:35:10.083Z,1.50
2022-08-02T11:37:39.736Z,2.15
2022-08-02T11:40:18.999Z,1.67
2022-08-02T11:42:50.370Z,1.30
2022-08-02T11:45:20.908Z,2.70
2022-08-02T11:47:54.166Z,1.80
2022-08-02T11:50:29.795Z,1.55
2022-08-02T11:52:57.462Z,1.70
2022-08-02T11:55:31.535Z,3.20
2022-08-02T11:58:05.404Z,1.45
2022-08-02T12:00:32.530Z,2.15
2022-08-02T12:02:59.090Z,1.67
2022-08-02T12:05:51.226Z,1.35
2022-08-02T12:08:13.260Z,1.55
2022-08-02T12:10:48.249Z,1.75
2022-08-02T12:13:14.923Z,3.08
2022-08-02T12:15:47.097Z,2.10
2022-08-02T12:18:38.510Z,2.13
2022-08-02T12:21:22.418Z,2.88
2022-08-02T12:24:00.536Z,1.50
2022-08-02T12:26:28.851Z,1.80
2022-08-02T12:29:01.389Z,2.00
2022-08-02T12:31:57.306Z,1.92
2022-08-02T12:34:30.038Z,1.77
2022-08-02T12:37:06.330Z,1.70
2022-08-02T12:39:49.919Z,1.70
2022-08-02T12:42:17.049Z,1.63
2022-08-02T12:45:00.055Z,2.20
2022-08-02T12:47:31.183Z,1.70
2022-08-02T12:50:13.079Z,2.47
2022-08-02T12:52:39.734Z,1.65
2022-08-02T12:55:25.755Z,2.33
2022-08-02T12:58:12.409Z,1.38
2022-08-02T13:00:39.783Z,2.53
2022-08-02T13:03:11.611Z,1.70
2022-08-02T13:05:56.567Z,1.70
2022-08-02T13:08:24.515Z,1.90
2022-08-02T13:10:51.170Z,1.77
2022-08-02T13:13:17.649Z,3.05
2022-08-02T13:15:48.833Z,1.77
2022-08-02T13:18:18.394Z,1.85
2022-08-02T13:20:45.614Z,1.77
2022-08-02T13:23:21.286Z,1.77
2022-08-02T13:25:52.550Z,1.83
2022-08-02T13:28:20.318Z,1.70
2022-08-02T13:30:47.566Z,1.63
2022-08-02T13:33:15.116Z,1.70
2022-08-02T13:35:42.458Z,1.92
2022-08-02T13:38:08.987Z,2.22
2022-08-02T13:41:03.838Z,2.20
2022-08-02T13:43:52.838Z,1.80
2022-08-02T13:46:17.230Z,2.05
2022-08-02T13:48:56.180Z,1.90
2022-08-02T13:51:23.020Z,1.80
2022-08-02T13:53:49.419Z,1.50
2022-08-02T13:56:16.012Z,2.08
2022-08-02T13:58:42.671Z,1.70
2022-08-02T14:01:10.132Z,3.03
2022-08-02T14:04:07.713Z,1.75
2022-08-02T14:06:23.178Z,1.70
2022-08-02T14:08:49.995Z,1.80
2022-08-02T14:11:16.438Z,1.63
2022-08-02T14:13:43.308Z,1.50
2022-08-02T14:16:10.185Z,2.75
2022-08-02T14:18:37.418Z,1.83
2022-08-02T14:21:04.021Z,2.95
2022-08-02T14:23:49.691Z,3.28
2022-08-02T14:26:26.893Z,1.55
2022-08-02T14:28:54.494Z,2.65
2022-08-02T14:31:20.925Z,1.70
2022-08-02T14:33:48.981Z,1.80
2022-08-02T14:36:15.454Z,1.88
2022-08-02T14:38:55.102Z,1.58
2022-08-02T14:41:21.711Z,1.80
2022-08-02T14:44:07.893Z,4.40
2022-08-02T14:46:43.201Z,1.88
2022-08-02T14:49:10.709Z,2.17
2022-08-02T14:51:38.053Z,2.45
2022-08-02T14:54:06.155Z,2.20
2022-08-02T14:56:35.378Z,1.60
2022-08-02T14:59:01.814Z,2.38
2022-08-02T15:01:28.406Z,1.70
2022-08-02T15:03:54.874Z,1.77
2022-08-02T15:06:21.419Z,2.22
2022-08-02T15:08:47.846Z,2.28
2022-08-02T15:11:14.415Z,2.00
2022-08-02T15:13:42.350Z,1.90
2022-08-02T15:16:09.546Z,2.30
2022-08-02T15:18:39.181Z,2.22
2022-08-02T15:21:40.215Z,2.03
2022-08-02T15:23:52.098Z,1.90
2022-08-02T15:26:20.892Z,2.47
2022-08-02T15:28:48.447Z,1.80
2022-08-02T15:31:32.943Z,2.53
2022-08-02T15:34:00.875Z,1.88
2022-08-02T15:36:29.555Z,1.80
2022-08-02T15:38:57.430Z,1.90
2022-08-02T15:41:24.067Z,1.95
2022-08-02T15:44:00.337Z,1.67
2022-08-02T15:46:30.727Z,2.25
2022-08-02T15:48:58.574Z,2.17
2022-08-02T15:51:27.339Z,1.73
2022-08-02T15:53:53.814Z,1.80
2022-08-02T15:56:21.903Z,1.70
2022-08-02T15:58:51.757Z,3.40
2022-08-02T16:01:23.266Z,1.67
2022-08-02T16:03:49.998Z,1.80
2022-08-02T16:06:16.568Z,2.08
2022-08-02T16:08:54.812Z,1.70
2022-08-02T16:11:22.421Z,1.90
2022-08-02T16:13:54.307Z,1.85
2022-08-02T16:16:27.438Z,2.05
2022-08-02T16:18:54.557Z,2.05
2022-08-02T16:21:22.808Z,1.70
2022-08-02T16:23:58.997Z,1.70
2022-08-02T16:26:30.305Z,5.68
2022-08-02T16:28:57.175Z,25.23
2022-08-02T16:31:23.917Z,26.70
2022-08-02T16:33:50.528Z,19.55
2022-08-02T16:36:24.099Z,42.38
2022-08-02T16:38:50.700Z,42.20
2022-08-02T16:41:17.147Z,5.07
2022-08-02T16:43:44.641Z,1.90
2022-08-02T16:46:11.261Z,2.08
2022-08-02T16:48:37.794Z,1.98
2022-08-02T16:51:04.805Z,2.28
2022-08-02T16:53:59.812Z,1.55
2022-08-02T16:56:28.455Z,1.85
2022-08-02T16:58:55.513Z,1.67
2022-08-02T17:01:27.740Z,2.05
2022-08-02T17:04:12.958Z,2.22
2022-08-02T17:06:39.838Z,1.73
2022-08-02T17:10:01.902Z,1.83
2022-08-02T17:12:01.049Z,1.90
2022-08-02T17:14:28.112Z,1.60
2022-08-02T17:16:55.385Z,1.75
2022-08-02T17:19:21.899Z,2.28
2022-08-02T17:21:48.524Z,1.90
2022-08-02T17:24:14.986Z,1.67
2022-08-02T17:26:41.435Z,1.88
2022-08-02T17:29:15.053Z,1.60
2022-08-02T17:32:05.688Z,2.25
2022-08-02T17:34:37.055Z,1.77
2022-08-02T17:37:05.560Z,1.80
2022-08-02T17:39:34.270Z,1.70
2022-08-02T17:42:10.295Z,2.47
2022-08-02T17:44:42.382Z,1.75
2022-08-02T17:47:15.611Z,1.65
2022-08-02T17:49:48.629Z,1.30
2022-08-02T17:52:51.777Z,2.00
2022-08-02T17:55:03.798Z,1.98
2022-08-02T17:57:55.738Z,1.67
2022-08-02T18:00:18.124Z,2.67
2022-08-02T18:02:50.563Z,1.60
2022-08-02T18:05:21.485Z,2.22
2022-08-02T18:07:50.937Z,2.70
2022-08-02T18:10:20.754Z,4.43
2022-08-02T18:12:49.840Z,2.90
2022-08-02T18:15:16.401Z,2.75
2022-08-02T18:17:46.559Z,1.90
2022-08-02T18:20:13.044Z,1.85
2022-08-02T18:22:43.056Z,1.80
2022-08-02T18:25:11.325Z,1.80
2022-08-02T18:27:45.004Z,1.73
2022-08-02T18:30:12.521Z,2.70
2022-08-02T18:33:57.374Z,2.42
2022-08-02T18:35:25.648Z,1.90
2022-08-02T18:37:57.277Z,2.00
2022-08-02T18:40:30.081Z,7.55
2022-08-02T18:42:57.547Z,2.20
2022-08-02T18:45:24.854Z,2.58
2022-08-02T18:48:11.351Z,1.70
2022-08-02T18:50:43.811Z,3.80
2022-08-02T18:53:13.453Z,1.77
2022-08-02T18:55:59.166Z,2.00
2022-08-02T18:58:26.553Z,2.28
2022-08-02T19:00:55.749Z,2.78
2022-08-02T19:03:22.502Z,2.25
2022-08-02T19:05:53.109Z,3.05
2022-08-02T19:08:20.539Z,3.97
2022-08-02T19:10:52.972Z,2.63
2022-08-02T19:13:19.644Z,4.57
2022-08-02T19:15:46.669Z,3.22
2022-08-02T19:18:14.567Z,2.42
2022-08-02T19:20:41.139Z,2.20
2022-08-02T19:23:15.501Z,2.05
2022-08-02T19:25:50.078Z,3.53
2022-08-02T19:28:17.314Z,3.00
2022-08-02T19:30:52.958Z,2.80
2022-08-02T19:33:24.938Z,2.10
2022-08-02T19:36:07.137Z,2.20
2022-08-02T19:38:33.606Z,2.35
2022-08-02T19:41:01.549Z,1.90
2022-08-02T19:44:25.376Z,3.47
2022-08-02T19:46:15.995Z,5.40
2022-08-02T19:48:44.149Z,2.75
2022-08-02T19:51:12.892Z,2.50
2022-08-02T19:53:46.594Z,2.85
2022-08-02T19:56:20.958Z,4.55
2022-08-02T19:58:49.273Z,2.30
2022-08-02T20:01:17.257Z,3.33
2022-08-02T20:03:51.332Z,3.03
2022-08-02T20:06:29.500Z,4.13
2022-08-02T20:08:59.221Z,5.15
2022-08-02T20:11:27.739Z,3.60
2022-08-02T20:13:54.271Z,2.20
2022-08-02T20:16:28.090Z,2.40
2022-08-02T20:18:56.061Z,2.45
2022-08-02T20:21:34.460Z,3.67
2022-08-02T20:24:06.231Z,2.97
2022-08-02T20:26:32.743Z,3.22
2022-08-02T20:29:03.497Z,2.55
2022-08-02T20:31:30.386Z,2.25
2022-08-02T20:33:57.086Z,2.65
2022-08-02T20:36:27.911Z,2.65
2022-08-02T20:38:55.192Z,3.17
2022-08-02T20:41:22.999Z,2.78
2022-08-02T20:43:50.395Z,3.05
2022-08-02T20:46:17.003Z,3.63
2022-08-02T20:48:44.228Z,2.60
2022-08-02T20:51:12.556Z,2.58
2022-08-02T20:53:54.617Z,2.97
2022-08-02T20:56:21.845Z,2.70
2022-08-02T20:58:48.380Z,2.63
2022-08-02T21:01:21.220Z,2.50
2022-08-02T21:03:58.382Z,2.33
2022-08-02T21:06:28.201Z,2.45
2022-08-02T21:08:55.518Z,2.67
2022-08-02T21:11:25.505Z,4.40
2022-08-02T21:14:06.908Z,3.17
2022-08-02T21:16:36.465Z,2.30
2022-08-02T21:19:08.109Z,3.72
2022-08-02T21:21:37.193Z,3.03
2022-08-02T21:24:04.103Z,2.75
2022-08-02T21:26:32.479Z,5.25
2022-08-02T21:29:03.970Z,2.58
2022-08-02T21:31:35.841Z,4.20
2022-08-02T21:34:21.629Z,3.05
2022-08-02T21:36:49.603Z,2.38
2022-08-02T21:39:17.211Z,2.53
2022-08-02T21:41:47.112Z,5.05
2022-08-02T21:44:18.410Z,2.65
2022-08-02T21:46:50.380Z,4.88
2022-08-02T21:49:27.175Z,2.53
2022-08-02T21:52:08.442Z,3.03
2022-08-02T21:54:35.096Z,3.10
2022-08-02T21:57:01.597Z,2.80
2022-08-02T21:59:30.573Z,2.92
2022-08-02T22:01:59.545Z,2.65
2022-08-02T22:04:26.653Z,3.13
2022-08-02T22:06:55.178Z,3.03
2022-08-02T22:09:43.506Z,2.47
2022-08-02T22:12:16.965Z,2.63
2022-08-02T22:14:49.647Z,2.80
2022-08-02T22:17:21.703Z,3.28
2022-08-02T22:20:08.883Z,2.58
2022-08-02T22:22:38.871Z,3.22
2022-08-02T22:25:05.891Z,4.00
2022-08-02T22:28:36.096Z,3.13
2022-08-02T22:30:24.758Z,2.45
2022-08-02T22:33:15.235Z,2.95
2022-08-02T22:35:42.209Z,3.42
2022-08-02T22:38:16.884Z,3.05
2022-08-02T22:40:55.198Z,4.43
2022-08-02T22:43:22.944Z,3.10
2022-08-02T22:45:49.978Z,3.22
2022-08-02T22:48:16.791Z,2.75
2022-08-02T22:50:43.287Z,2.63
2022-08-02T22:53:09.836Z,2.80
2022-08-02T22:55:41.597Z,2.80
2022-08-02T22:58:08.973Z,3.95
2022-08-02T23:00:35.388Z,2.83
2022-08-02T23:03:01.901Z,3.03
2022-08-02T23:05:29.884Z,2.92
2022-08-02T23:07:56.745Z,2.83
2022-08-02T23:10:23.714Z,3.72
2022-08-02T23:12:50.257Z,3.30
2022-08-02T23:15:17.022Z,3.53
2022-08-02T23:18:02.177Z,3.03
2022-08-02T23:20:28.855Z,4.15
2022-08-02T23:22:55.757Z,3.20
2022-08-02T23:25:22.496Z,3.35
2022-08-02T23:27:51.425Z,3.83
2022-08-02T23:30:18.794Z,2.90
2022-08-02T23:32:46.769Z,3.65
2022-08-02T23:35:16.934Z,3.08
2022-08-02T23:37:59.218Z,4.53
2022-08-02T23:40:39.550Z,2.88
2022-08-02T23:43:14.374Z,3.30
2022-08-02T23:45:45.843Z,3.22
2022-08-02T23:48:12.546Z,3.00
2022-08-02T23:50:39.441Z,3.97
2022-08-02T23:53:05.960Z,3.47
2022-08-02T23:55:32.422Z,3.05
2022-08-02T23:57:58.812Z,3.22
